• Join FlightAware (Why Join?)
  • Login
  • US Flag 
09:11PM EST


 

Airport Tracker/Info


-or-


 

Live Flight TrackerFlight Track Log ✈ ANO215 ✈ 16-May-2013 ✈ YMGD / MNG - YPDN / DRW

Flight Track Log - Related Links

Times and Time Zones

All times are in EDT time to prevent confusion due to time zone crossing. See the ANO215 flight status page for this flight to view local times or setup timezone preferences in your user account.

Time Position Orientation Groundspeed Altitude Reporting Facility
EDT Latitude Longitude Course Direction KTS MPH feet Rate Location/Type
11:18PM -12.1288 133.9856 256° West 22,000  Level Aus ATC (Calculated)
11:18PM -12.1288 133.9856 256° West 22,000 -780 Level Aus ATC (Calculated)
11:19PM -12.1453 133.9240 256° West 22,000 -840 Level Aus ATC (Calculated)
11:21PM -12.1724 133.8229 255° West  Level FlightAware Approximate
11:21PM -12.1618 133.8625 258° West 22,000  Level Aus ATC (Calculated)
11:22PM -12.1947 133.7393 70° East 22,000 -1,200 Level Aus ATC (Calculated)
11:24PM -12.2217 133.6381 255° West  Level FlightAware Approximate
11:25PM -12.2385 133.5749 255° West  Level FlightAware Approximate
11:26PM -12.2553 133.5116 255° West  Level FlightAware Approximate
11:26PM -12.1787 133.7838 255° West 217 250 16,200  Level Aus ATC (RADAR)
11:26PM -12.1941 133.7458 247° West 215 247 17,000 1,020 Climbing Aus ATC (RADAR)
11:27PM -12.2026 133.7026 259° West 213 245 17,700 840 Climbing Aus ATC (RADAR)
11:27PM -12.2113 133.6785 250° West 219 252 18,000 720 Climbing Aus ATC (RADAR)
11:28PM -12.2212 133.6379 256° West 222 255 18,500 840 Climbing Aus ATC (RADAR)
11:29PM -12.2423 133.5628 254° West 220 253 19,700 960 Climbing Aus ATC (RADAR)
11:30PM -12.2480 133.5381 257° West 217 250 20,100 900 Climbing Aus ATC (RADAR)
11:30PM -12.2569 133.5038 255° West 216 249 20,600 720 Climbing Aus ATC (RADAR)
11:31PM -12.2675 133.4637 255° West 220 253 21,000 720 Climbing Aus ATC (RADAR)
11:32PM -12.2770 133.4284 255° West 221 254 21,500 660 Climbing Aus ATC (RADAR)
11:32PM -12.2898 133.3777 256° West 222 255 22,000 360 Climbing Aus ATC (RADAR)
11:33PM -12.2960 133.3510 257° West 229 264 22,000 -120 Level Aus ATC (RADAR)
11:34PM -12.3190 133.2709 254° West 255 293 21,900 -60 Descending Aus ATC (RADAR)
11:34PM -12.3279 133.2348 256° West 260 299 21,900  Level Aus ATC (RADAR)
11:35PM -12.3360 133.2048 255° West 264 304 21,900  Level Aus ATC (RADAR)
11:35PM -12.3474 133.1624 255° West 265 305 21,900  Level Aus ATC (RADAR)
11:36PM -12.3617 133.1078 255° West 266 306 21,900  Level Aus ATC (RADAR)
11:37PM -12.3753 133.0591 254° West 267 307 21,900  Level Aus ATC (RADAR)
11:38PM -12.3896 133.0043 255° West 267 307 21,900  Level Aus ATC (RADAR)
11:38PM -12.3960 132.9801 255° West 266 306 21,900  Level Aus ATC (RADAR)
11:39PM -12.4253 132.8702 255° West 267 307 21,900  Level Aus ATC (RADAR)
11:40PM -12.4304 132.8519 254° West 267 307 21,900  Level Aus ATC (RADAR)
11:41PM -12.4446 132.7969 255° West 268 308 21,900  Level Aus ATC (RADAR)
11:42PM -12.4675 132.7113 255° West 269 310 21,900  Level Aus ATC (RADAR)
11:42PM -12.4800 132.6624 255° West 267 307 21,900  Level Aus ATC (RADAR)
11:43PM -12.4928 132.6138 255° West 266 306 21,900  Level Aus ATC (RADAR)
11:44PM -12.5218 132.5044 255° West 267 307 21,900  Level Aus ATC (RADAR)
11:45PM -12.5312 132.4678 255° West 267 307 21,900  Level Aus ATC (RADAR)
11:45PM -12.5375 132.4435 255° West 266 306 21,900  Level Aus ATC (RADAR)
11:46PM -12.5487 132.4009 255° West 266 306 21,900  Level Aus ATC (RADAR)
11:47PM -12.5631 132.3458 255° West 268 308 21,900  Level Aus ATC (RADAR)
11:47PM -12.5757 132.2970 255° West 267 307 21,900  Level Aus ATC (RADAR)
11:48PM -12.5813 132.2287 265° West 268 308 21,900  Level Aus ATC (RADAR)
11:49PM -12.5618 132.1616 287° West 265 305 21,900  Level Aus ATC (RADAR)
11:49PM -12.5576 132.1433 283° West 264 304 21,900  Level Aus ATC (RADAR)
11:50PM -12.5435 132.0879 285° West 264 304 21,900  Level Aus ATC (RADAR)
11:51PM -12.5324 132.0448 285° West 265 305 21,900  Level Aus ATC (RADAR)
11:52PM -12.5176 131.9833 284° West 265 305 21,900  Level Aus ATC (RADAR)
11:52PM -12.5071 131.9402 284° West 265 305 21,900  Level Aus ATC (RADAR)
11:53PM -12.4923 131.8788 284° West 263 303 21,900  Level Aus ATC (RADAR)
11:53PM -12.4848 131.8482 284° West 264 304 21,900  Level Aus ATC (RADAR)
11:54PM -12.4696 131.7870 284° West 263 303 21,900  Level Aus ATC (RADAR)
11:55PM -12.4595 131.7442 284° West 263 303 21,900  Level Aus ATC (RADAR)
11:55PM -12.4561 131.7002 274° West 261 300 21,900  Level Aus ATC (RADAR)
11:56PM -12.4489 131.6379 277° West 263 303 21,900 -120 Level Aus ATC (RADAR)
11:57PM -12.4451 131.6064 277° West 263 303 21,800 -1,020 Descending Aus ATC (RADAR)
11:57PM -12.4399 131.5602 277° West 275 316 20,900 -1,560 Descending Aus ATC (RADAR)
11:58PM -12.4338 131.5109 277° West 292 336 20,000 -1,560 Descending Aus ATC (RADAR)
11:58PM -12.4269 131.4534 277° West 300 345 19,000 -1,560 Descending Aus ATC (RADAR)
11:59PM -12.4164 131.3607 277° West 296 341 17,300 -1,440 Descending Aus ATC (RADAR)
12:00AM -12.4144 131.3465 278° West 295 339 17,000 -780 Descending Aus ATC (RADAR)
12:01AM -12.4102 131.3117 277° West 292 336 16,500 -660 Descending Aus ATC (RADAR)
12:01AM -12.4045 131.2644 277° West 282 325 16,000 -840 Descending Aus ATC (RADAR)
12:02AM -12.3994 131.2188 276° West 273 314 15,400 -1,260 Descending Aus ATC (RADAR)
12:03AM -12.3874 131.1185 277° West 283 326 14,100 -1,260 Descending Aus ATC (RADAR)
12:03AM -12.3841 131.0914 277° West 283 326 13,800 -1,560 Descending Aus ATC (RADAR)
12:05AM -12.3519 130.9613 284° West 278 320 11,700 -1,680 Descending Aus ATC (RADAR)
12:05AM -12.3417 130.9308 289° West 264 304 10,900 -1,920 Descending Aus ATC (RADAR)
12:05AM -12.3310 130.8962 288° West 249 287 10,000 -1,200 Descending Aus ATC (RADAR)
12:06AM -12.3191 130.8597 289° West 227 261 9,600 -1,680 Descending Aus ATC (RADAR)
12:07AM -12.3059 130.8193 288° West 219 252 8,000 -2,520 Descending Aus ATC (RADAR)
12:07AM -12.2918 130.7767 289° West 227 261 6,300 -2,160 Descending Aus ATC (RADAR)
12:08AM -12.2762 130.7296 289° West 223 257 5,000 -1,740 Descending Aus ATC (RADAR)
12:08AM -12.2752 130.7033 272° West 227 261 4,300 -1,080 Descending Aus ATC (RADAR)
12:10AM -12.3388 130.6775 202° Southwest 169 194 3,200 -780 Descending Aus ATC (RADAR)
12:10AM -12.3500 130.6860 143° Southeast 152 175 3,000 -240 Descending Aus ATC (RADAR)
12:11AM -12.3557 130.7105 103° East 145 167 3,000 -120 Level Aus ATC (RADAR)
12:12AM -12.3613 130.7290 107° East 136 157 2,900 -300 Descending Aus ATC (RADAR)
12:12AM -12.3640 130.7380 107° East 133 153 2,600 -360 Descending Aus ATC (RADAR)
12:13AM -12.3668 130.7467 108° East 131 151 2,400 -300 Descending Aus ATC (RADAR)
12:13AM -12.3696 130.7553 109° East 128 147 2,300 -240 Descending Aus ATC (RADAR)
12:15AM -12.3764 130.7747 110° East 125 144 2,000 -360 Descending Aus ATC (RADAR)
12:15AM -12.3845 130.7969 110° East 123 142 1,700 -780 Descending Aus ATC (RADAR)
12:16AM -12.3925 130.8194 110° East 125 144 1,200 -720 Descending Aus ATC (RADAR)
12:16AM -12.3956 130.8279 110° East 126 145 1,000 -420 Descending Aus ATC (RADAR)
12:17AM -12.3992 130.8363 114° Southeast 127 146 700 -300 Descending Aus ATC (RADAR)
12:18AM -12.4014 130.8418 113° Southeast 126 145 600 -240 Descending Aus ATC (RADAR)
12:19AM -12.4060 130.8551 109° East 120 138 400 -240 Descending Aus ATC (RADAR)
12:22AM -12.4147 130.8767 113° Southeast  Level Estimated